createdAt,value
2022-12-03T00:00:13.181Z,45.60
2022-12-03T00:02:40.597Z,45.40
2022-12-03T00:05:07.418Z,45.60
2022-12-03T00:07:33.984Z,45.70
2022-12-03T00:10:00.687Z,45.90
2022-12-03T00:12:27.258Z,45.30
2022-12-03T00:14:53.924Z,45.30
2022-12-03T00:17:20.834Z,45.50
2022-12-03T00:19:47.486Z,44.90
2022-12-03T00:22:14.456Z,45.50
2022-12-03T00:24:41.025Z,45.60
2022-12-03T00:27:07.601Z,45.30
2022-12-03T00:29:34.157Z,44.90
2022-12-03T00:32:00.715Z,45.00
2022-12-03T00:34:27.256Z,44.60
2022-12-03T00:36:53.817Z,45.40
2022-12-03T00:39:20.388Z,45.50
2022-12-03T00:41:47.060Z,45.30
2022-12-03T00:44:13.751Z,45.40
2022-12-03T00:46:40.533Z,45.40
2022-12-03T00:49:07.298Z,45.30
2022-12-03T00:51:33.920Z,45.60
2022-12-03T00:54:00.464Z,45.60
2022-12-03T00:56:27.087Z,45.30
2022-12-03T00:58:54.145Z,45.30
2022-12-03T01:01:21.072Z,44.50
2022-12-03T01:03:47.926Z,45.10
2022-12-03T01:06:14.609Z,44.80
2022-12-03T01:08:41.379Z,45.70
2022-12-03T01:11:27.984Z,44.50
2022-12-03T01:13:57.210Z,44.70
2022-12-03T01:16:24.587Z,44.20
2022-12-03T01:18:53.111Z,44.50
2022-12-03T01:21:19.841Z,45.80
2022-12-03T01:23:46.869Z,45.80
2022-12-03T01:26:13.668Z,45.50
2022-12-03T01:28:42.055Z,45.40
2022-12-03T01:31:31.983Z,45.30
2022-12-03T01:33:58.596Z,44.90
2022-12-03T01:36:25.139Z,44.50
2022-12-03T01:38:51.717Z,44.80
2022-12-03T01:41:19.055Z,45.10
2022-12-03T01:43:46.153Z,45.00
2022-12-03T01:46:14.889Z,44.90
2022-12-03T01:48:41.657Z,45.00
2022-12-03T01:51:08.252Z,45.00
2022-12-03T01:53:34.888Z,44.90
2022-12-03T01:56:01.513Z,45.10
2022-12-03T01:58:28.767Z,45.20
2022-12-03T02:00:56.832Z,45.00
2022-12-03T02:03:25.179Z,44.60
2022-12-03T02:05:52.133Z,45.00
2022-12-03T02:08:35.042Z,44.70
2022-12-03T02:11:03.155Z,45.20
2022-12-03T02:13:29.987Z,45.20
2022-12-03T02:15:56.655Z,45.10
2022-12-03T02:18:23.232Z,44.90
2022-12-03T02:21:08.456Z,45.00
2022-12-03T02:23:55.444Z,44.80
2022-12-03T02:26:22.148Z,45.40
2022-12-03T02:28:48.835Z,45.90
2022-12-03T02:31:15.658Z,45.10
2022-12-03T02:33:42.254Z,45.20
2022-12-03T02:36:09.059Z,45.00
2022-12-03T02:38:35.781Z,44.70
2022-12-03T02:41:04.658Z,45.30
2022-12-03T02:43:31.305Z,45.30
2022-12-03T02:45:59.790Z,44.90
2022-12-03T02:48:34.731Z,45.20
2022-12-03T02:51:03.686Z,44.50
2022-12-03T02:53:38.534Z,44.90
2022-12-03T02:56:05.455Z,45.40
2022-12-03T02:58:32.707Z,45.30
2022-12-03T03:01:00.714Z,45.00
2022-12-03T03:03:28.263Z,45.00
2022-12-03T03:05:57.425Z,44.80
2022-12-03T03:08:25.006Z,44.30
2022-12-03T03:10:51.996Z,45.30
2022-12-03T03:13:21.032Z,45.10
2022-12-03T03:15:47.868Z,44.80
2022-12-03T03:18:14.846Z,44.90
2022-12-03T03:20:41.601Z,44.80
2022-12-03T03:23:10.913Z,45.10
2022-12-03T03:25:38.270Z,45.30
2022-12-03T03:28:05.328Z,45.30
2022-12-03T03:30:32.636Z,45.00
2022-12-03T03:32:59.308Z,45.00
2022-12-03T03:35:26.038Z,44.80
2022-12-03T03:37:53.529Z,44.70
2022-12-03T03:40:21.122Z,45.30
2022-12-03T03:42:48.065Z,45.30
2022-12-03T03:45:15.066Z,45.10
2022-12-03T03:47:41.977Z,45.20
2022-12-03T03:50:10.310Z,45.00
2022-12-03T03:52:37.379Z,45.30
2022-12-03T03:55:05.349Z,45.20
2022-12-03T03:57:32.201Z,44.90
2022-12-03T03:59:58.960Z,45.00
2022-12-03T04:02:26.546Z,45.00
2022-12-03T04:04:53.869Z,45.20
2022-12-03T04:07:20.585Z,45.40
2022-12-03T04:09:47.155Z,45.20
2022-12-03T04:12:32.177Z,44.90
2022-12-03T04:14:58.745Z,45.00
2022-12-03T04:17:25.724Z,44.90
2022-12-03T04:19:52.267Z,45.10
2022-12-03T04:22:37.680Z,45.10
2022-12-03T04:25:23.415Z,45.00
2022-12-03T04:28:08.465Z,45.10
2022-12-03T04:30:35.062Z,44.80
2022-12-03T04:33:20.154Z,45.10
2022-12-03T04:35:46.890Z,45.30
2022-12-03T04:38:14.869Z,45.10
2022-12-03T04:41:05.014Z,45.00
2022-12-03T04:43:32.924Z,44.90
2022-12-03T04:46:00.185Z,44.90
2022-12-03T04:48:26.924Z,45.30
2022-12-03T04:50:53.479Z,45.20
2022-12-03T04:53:20.111Z,45.10
2022-12-03T04:55:46.675Z,45.30
2022-12-03T04:58:13.240Z,44.40
2022-12-03T05:00:39.839Z,45.20
2022-12-03T05:03:06.469Z,45.30
2022-12-03T05:05:33.081Z,45.00
2022-12-03T05:07:59.719Z,45.50
2022-12-03T05:10:26.343Z,45.30
2022-12-03T05:12:52.886Z,44.90
2022-12-03T05:15:19.430Z,45.50
2022-12-03T05:17:45.969Z,45.50
2022-12-03T05:20:31.428Z,45.20
2022-12-03T05:22:58.151Z,45.50
2022-12-03T05:25:24.719Z,45.50
2022-12-03T05:27:51.289Z,45.30
2022-12-03T05:30:17.865Z,45.50
2022-12-03T05:32:44.416Z,45.50
2022-12-03T05:35:11.019Z,45.10
2022-12-03T05:37:37.608Z,45.40
2022-12-03T05:40:04.520Z,45.50
2022-12-03T05:42:49.628Z,45.00
2022-12-03T05:45:16.199Z,45.50
2022-12-03T05:47:42.759Z,45.60
2022-12-03T05:50:09.417Z,45.30
2022-12-03T05:52:36.045Z,45.50
2022-12-03T05:55:02.628Z,45.70
2022-12-03T05:57:29.193Z,45.50
2022-12-03T05:59:55.764Z,45.50
2022-12-03T06:02:22.734Z,45.50
2022-12-03T06:04:49.384Z,45.50
2022-12-03T06:07:16.299Z,45.30
2022-12-03T06:09:42.872Z,45.50
2022-12-03T06:12:09.508Z,44.70
2022-12-03T06:14:36.095Z,45.40
2022-12-03T06:17:03.078Z,45.50
2022-12-03T06:19:29.681Z,45.40
2022-12-03T06:21:56.347Z,45.20
2022-12-03T06:24:22.923Z,45.50
2022-12-03T06:26:49.543Z,45.30
2022-12-03T06:29:16.094Z,45.20
2022-12-03T06:31:42.714Z,45.30
2022-12-03T06:34:09.363Z,45.20
2022-12-03T06:36:35.989Z,45.20
2022-12-03T06:39:02.546Z,45.90
2022-12-03T06:41:29.122Z,45.30
2022-12-03T06:43:55.706Z,45.30
2022-12-03T06:46:22.353Z,45.30
2022-12-03T06:48:48.933Z,45.20
2022-12-03T06:51:15.496Z,45.30
2022-12-03T06:53:42.066Z,45.30
2022-12-03T06:56:08.654Z,45.10
2022-12-03T06:58:35.219Z,45.30
2022-12-03T07:01:01.778Z,45.70
2022-12-03T07:03:28.346Z,46.00
2022-12-03T07:05:55.501Z,45.80
2022-12-03T07:08:22.037Z,45.80
2022-12-03T07:10:48.618Z,45.80
2022-12-03T07:13:15.185Z,46.00
2022-12-03T07:15:41.799Z,46.20
2022-12-03T07:18:08.418Z,46.00
2022-12-03T07:20:34.964Z,45.80
2022-12-03T07:23:01.518Z,45.60
2022-12-03T07:25:28.948Z,45.70
2022-12-03T07:27:55.588Z,45.50
2022-12-03T07:30:23.548Z,45.50
2022-12-03T07:32:50.303Z,45.50
2022-12-03T07:35:17.318Z,45.40
2022-12-03T07:37:43.888Z,45.50
2022-12-03T07:40:10.807Z,45.50
2022-12-03T07:42:37.495Z,45.30
2022-12-03T07:45:04.950Z,45.20
2022-12-03T07:47:31.745Z,45.20
2022-12-03T07:49:58.420Z,45.50
2022-12-03T07:52:25.606Z,45.40
2022-12-03T07:54:52.614Z,45.20
2022-12-03T07:57:20.603Z,45.30
2022-12-03T07:59:47.235Z,45.60
2022-12-03T08:02:18.136Z,45.90
2022-12-03T08:04:47.709Z,45.60
2022-12-03T08:07:14.585Z,45.00
2022-12-03T08:09:41.742Z,45.40
2022-12-03T08:12:15.121Z,45.40
2022-12-03T08:14:41.782Z,45.70
2022-12-03T08:17:12.207Z,45.20
2022-12-03T08:19:38.933Z,45.60
2022-12-03T08:22:11.392Z,45.80
2022-12-03T08:24:38.132Z,45.50
2022-12-03T08:27:06.602Z,45.80
2022-12-03T08:29:33.191Z,46.20
2022-12-03T08:32:00.942Z,46.30
2022-12-03T08:34:28.453Z,45.30
2022-12-03T08:37:02.050Z,46.80
2022-12-03T08:39:37.703Z,46.80
2022-12-03T08:42:23.249Z,46.00
2022-12-03T08:44:50.125Z,46.00
2022-12-03T08:47:19.723Z,45.80
2022-12-03T08:50:03.250Z,45.90
2022-12-03T08:52:33.754Z,46.10
2022-12-03T08:55:02.604Z,45.70
2022-12-03T08:57:31.025Z,45.80
2022-12-03T09:00:06.169Z,46.00
2022-12-03T09:02:34.157Z,45.70
2022-12-03T09:05:10.301Z,45.60
2022-12-03T09:07:36.963Z,45.40
2022-12-03T09:10:03.671Z,45.90
2022-12-03T09:12:30.419Z,45.70
2022-12-03T09:14:57.025Z,45.80
2022-12-03T09:17:23.616Z,45.60
2022-12-03T09:19:50.181Z,46.20
2022-12-03T09:22:17.372Z,45.80
2022-12-03T09:24:44.014Z,45.90
2022-12-03T09:27:10.634Z,46.20
2022-12-03T09:29:37.246Z,45.80
2022-12-03T09:32:03.943Z,45.60
2022-12-03T09:34:30.553Z,45.60
2022-12-03T09:36:57.116Z,45.80
2022-12-03T09:39:23.751Z,45.90
2022-12-03T09:41:50.671Z,45.90
2022-12-03T09:44:18.426Z,45.80
2022-12-03T09:46:46.058Z,46.30
2022-12-03T09:49:16.215Z,45.60
2022-12-03T09:51:43.891Z,46.40
2022-12-03T09:54:16.442Z,45.70
2022-12-03T09:56:43.127Z,45.40
2022-12-03T09:59:12.847Z,46.10
2022-12-03T10:01:39.554Z,45.20
2022-12-03T10:04:06.374Z,45.60
2022-12-03T10:06:33.122Z,45.80
2022-12-03T10:09:02.793Z,45.70
2022-12-03T10:11:30.123Z,45.60
2022-12-03T10:13:57.518Z,45.90
2022-12-03T10:16:25.120Z,45.60
2022-12-03T10:18:52.971Z,46.00
2022-12-03T10:21:27.385Z,45.70
2022-12-03T10:24:12.851Z,45.70
2022-12-03T10:26:43.179Z,45.60
2022-12-03T10:29:17.357Z,45.70
2022-12-03T10:31:44.083Z,45.70
2022-12-03T10:34:11.619Z,45.50
2022-12-03T10:36:38.699Z,45.70
2022-12-03T10:39:13.294Z,46.60
2022-12-03T10:41:42.210Z,46.00
2022-12-03T10:44:19.190Z,45.90
2022-12-03T10:46:46.500Z,45.90
2022-12-03T10:49:17.502Z,46.10
2022-12-03T10:51:45.650Z,45.60
2022-12-03T10:54:21.093Z,47.00
2022-12-03T10:56:49.844Z,46.10
2022-12-03T10:59:18.396Z,46.60
2022-12-03T11:01:45.138Z,46.60
2022-12-03T11:04:18.003Z,46.70
2022-12-03T11:06:44.610Z,45.80
2022-12-03T11:09:17.019Z,46.20
2022-12-03T11:11:44.106Z,45.70
2022-12-03T11:14:10.893Z,45.90
2022-12-03T11:16:40.471Z,46.40
2022-12-03T11:19:13.337Z,46.60
2022-12-03T11:21:58.864Z,46.00
2022-12-03T11:24:25.503Z,46.00
2022-12-03T11:26:52.076Z,46.20
2022-12-03T11:29:38.713Z,46.00
2022-12-03T11:32:06.341Z,46.20
2022-12-03T11:34:32.907Z,46.70
2022-12-03T11:37:11.874Z,46.10
2022-12-03T11:39:44.789Z,46.00
2022-12-03T11:42:26.760Z,46.10
2022-12-03T11:45:02.829Z,46.10
2022-12-03T11:47:38.782Z,46.10
2022-12-03T11:50:17.797Z,45.90
2022-12-03T11:52:45.205Z,46.20
2022-12-03T11:55:37.922Z,46.50
2022-12-03T11:58:05.975Z,45.90
2022-12-03T12:00:32.628Z,46.70
2022-12-03T12:02:59.347Z,46.40
2022-12-03T12:05:27.800Z,46.00
2022-12-03T12:07:55.216Z,46.60
2022-12-03T12:10:37.293Z,46.50
2022-12-03T12:13:03.915Z,46.20
2022-12-03T12:15:39.888Z,46.00
2022-12-03T12:18:25.367Z,46.20
2022-12-03T12:20:51.966Z,46.10
2022-12-03T12:23:23.256Z,46.30
2022-12-03T12:25:54.209Z,46.20
2022-12-03T12:28:21.214Z,46.00
2022-12-03T12:30:47.789Z,45.90
2022-12-03T12:33:18.996Z,46.20
2022-12-03T12:35:45.983Z,46.30
2022-12-03T12:38:14.259Z,46.00
2022-12-03T12:40:41.857Z,46.60
2022-12-03T12:43:20.329Z,46.20
2022-12-03T12:45:50.960Z,46.60
2022-12-03T12:48:20.685Z,47.50
2022-12-03T12:50:48.429Z,46.30
2022-12-03T12:53:24.924Z,46.20
2022-12-03T12:55:56.098Z,46.20
2022-12-03T12:58:23.016Z,46.30
2022-12-03T13:00:58.883Z,46.90
2022-12-03T13:03:27.342Z,46.30
2022-12-03T13:05:56.728Z,46.90
2022-12-03T13:08:23.432Z,46.30
2022-12-03T13:10:51.068Z,46.20
2022-12-03T13:13:21.529Z,46.30
2022-12-03T13:15:50.605Z,46.40
2022-12-03T13:18:23.153Z,46.80
2022-12-03T13:20:49.772Z,46.40
2022-12-03T13:23:35.440Z,46.80
2022-12-03T13:26:21.184Z,46.50
2022-12-03T13:28:51.751Z,47.10
2022-12-03T13:31:22.618Z,46.40
2022-12-03T13:33:49.847Z,46.40
2022-12-03T13:36:16.988Z,46.20
2022-12-03T13:38:44.374Z,46.40
2022-12-03T13:41:34.293Z,46.00
2022-12-03T13:44:00.961Z,46.40
2022-12-03T13:46:31.966Z,46.20
2022-12-03T13:49:01.767Z,46.00
2022-12-03T13:51:31.827Z,46.70
2022-12-03T13:53:59.005Z,46.50
2022-12-03T13:56:25.537Z,46.30
2022-12-03T13:58:52.157Z,46.20
2022-12-03T14:01:18.746Z,46.40
2022-12-03T14:03:45.435Z,46.40
2022-12-03T14:06:12.002Z,46.30
2022-12-03T14:08:38.656Z,46.40
2022-12-03T14:11:05.297Z,46.30
2022-12-03T14:13:31.881Z,46.20
2022-12-03T14:15:59.787Z,46.20
2022-12-03T14:18:26.385Z,46.40
2022-12-03T14:20:52.993Z,46.40
2022-12-03T14:23:19.566Z,46.40
2022-12-03T14:25:46.154Z,46.20
2022-12-03T14:28:12.772Z,46.20
2022-12-03T14:30:39.472Z,46.00
2022-12-03T14:33:06.049Z,46.00
2022-12-03T14:35:32.615Z,45.90
2022-12-03T14:37:59.176Z,45.80
2022-12-03T14:40:26.332Z,46.50
2022-12-03T14:42:52.872Z,45.80
2022-12-03T14:45:20.738Z,45.90
2022-12-03T14:47:47.321Z,46.40
2022-12-03T14:50:14.719Z,46.00
2022-12-03T14:52:41.485Z,45.90
2022-12-03T14:55:08.275Z,46.00
2022-12-03T14:57:34.857Z,46.00
2022-12-03T15:00:01.431Z,46.00
2022-12-03T15:02:28.946Z,46.50
2022-12-03T15:04:55.582Z,46.10
2022-12-03T15:07:22.239Z,46.00
2022-12-03T15:09:49.096Z,46.00
2022-12-03T15:12:15.700Z,46.10
2022-12-03T15:14:42.704Z,46.10
2022-12-03T15:17:09.357Z,46.00
2022-12-03T15:19:35.939Z,46.40
2022-12-03T15:22:02.569Z,46.60
2022-12-03T15:24:29.189Z,46.10
2022-12-03T15:26:56.054Z,46.70
2022-12-03T15:29:23.061Z,46.50
2022-12-03T15:31:49.796Z,46.10
2022-12-03T15:34:22.158Z,46.10
2022-12-03T15:36:51.134Z,46.10
2022-12-03T15:39:19.205Z,46.10
2022-12-03T15:41:47.081Z,46.20
2022-12-03T15:44:13.636Z,46.10
2022-12-03T15:46:40.374Z,46.00
2022-12-03T15:49:07.043Z,46.10
2022-12-03T15:51:33.743Z,46.10
2022-12-03T15:54:00.361Z,46.40
2022-12-03T15:56:26.908Z,47.00
2022-12-03T15:58:53.658Z,46.10
2022-12-03T16:01:20.298Z,46.40
2022-12-03T16:03:46.963Z,46.60
2022-12-03T16:06:14.719Z,46.50
2022-12-03T16:08:41.455Z,47.20
2022-12-03T16:11:08.374Z,46.20
2022-12-03T16:13:35.280Z,46.40
2022-12-03T16:16:01.936Z,46.20
2022-12-03T16:18:28.558Z,46.20
2022-12-03T16:20:55.148Z,46.30
2022-12-03T16:23:21.693Z,46.30
2022-12-03T16:25:48.368Z,46.40
2022-12-03T16:28:15.050Z,46.30
2022-12-03T16:30:41.838Z,46.20
2022-12-03T16:33:08.405Z,46.20
2022-12-03T16:35:34.968Z,46.20
2022-12-03T16:38:01.575Z,46.20
2022-12-03T16:40:28.208Z,46.20
2022-12-03T16:42:54.805Z,46.70
2022-12-03T16:45:21.372Z,46.70
2022-12-03T16:47:47.976Z,46.90
2022-12-03T16:50:21.852Z,46.90
2022-12-03T16:52:54.289Z,46.40
2022-12-03T16:55:20.843Z,46.60
2022-12-03T16:57:47.498Z,46.20
2022-12-03T17:00:14.409Z,46.20
2022-12-03T17:02:41.181Z,46.40
2022-12-03T17:05:07.994Z,46.10
2022-12-03T17:07:34.724Z,46.40
2022-12-03T17:10:01.462Z,46.30
2022-12-03T17:12:42.278Z,46.20
2022-12-03T17:15:14.697Z,46.40
2022-12-03T17:17:41.309Z,47.00
2022-12-03T17:20:08.635Z,46.10
2022-12-03T17:22:35.283Z,46.40
2022-12-03T17:25:01.944Z,46.40
2022-12-03T17:27:29.437Z,46.40
2022-12-03T17:29:56.279Z,46.80
2022-12-03T17:32:23.003Z,46.20
2022-12-03T17:34:49.638Z,46.40
2022-12-03T17:37:16.287Z,46.20
2022-12-03T17:39:42.862Z,46.30
2022-12-03T17:42:09.423Z,46.30
2022-12-03T17:44:35.984Z,46.20
2022-12-03T17:47:02.629Z,46.40
2022-12-03T17:49:31.653Z,46.20
2022-12-03T17:51:59.293Z,46.20
2022-12-03T17:54:37.959Z,46.40
2022-12-03T17:57:12.410Z,46.50
2022-12-03T17:59:38.954Z,46.10
2022-12-03T18:02:05.635Z,46.30
2022-12-03T18:04:32.437Z,45.90
2022-12-03T18:07:02.368Z,45.90
2022-12-03T18:09:29.342Z,45.80
2022-12-03T18:11:55.905Z,46.10
2022-12-03T18:14:22.531Z,46.00
2022-12-03T18:16:49.136Z,45.50
2022-12-03T18:19:15.749Z,46.00
2022-12-03T18:21:42.790Z,46.40
2022-12-03T18:24:09.485Z,45.30
2022-12-03T18:26:36.128Z,46.10
2022-12-03T18:29:03.051Z,46.60
2022-12-03T18:31:29.695Z,45.90
2022-12-03T18:33:56.297Z,46.50
2022-12-03T18:36:24.277Z,45.80
2022-12-03T18:38:52.171Z,46.00
2022-12-03T18:41:19.405Z,46.10
2022-12-03T18:43:46.248Z,46.00
2022-12-03T18:46:31.076Z,45.80
2022-12-03T18:49:01.235Z,46.10
2022-12-03T18:51:29.021Z,45.80
2022-12-03T18:53:55.590Z,46.00
2022-12-03T18:56:22.393Z,46.00
2022-12-03T18:58:49.092Z,46.20
2022-12-03T19:01:17.227Z,46.20
2022-12-03T19:03:44.705Z,46.10
2022-12-03T19:06:18.672Z,46.30
2022-12-03T19:08:46.031Z,46.30
2022-12-03T19:11:13.347Z,46.40
2022-12-03T19:13:40.648Z,46.10
2022-12-03T19:16:08.314Z,46.50
2022-12-03T19:18:35.087Z,46.20
2022-12-03T19:21:05.943Z,46.00
2022-12-03T19:23:32.617Z,46.50
2022-12-03T19:26:00.687Z,46.20
2022-12-03T19:28:28.426Z,46.00
2022-12-03T19:30:58.057Z,46.30
2022-12-03T19:33:28.584Z,46.20
2022-12-03T19:35:56.118Z,46.70
2022-12-03T19:38:23.430Z,46.70
2022-12-03T19:40:59.255Z,46.60
2022-12-03T19:43:26.727Z,46.30
2022-12-03T19:45:54.734Z,46.30
2022-12-03T19:48:22.825Z,46.80
2022-12-03T19:51:07.940Z,46.30
2022-12-03T19:53:39.886Z,46.50
2022-12-03T19:56:11.120Z,46.50
2022-12-03T19:58:38.267Z,46.40
2022-12-03T20:01:08.957Z,46.40
2022-12-03T20:03:38.721Z,46.30
2022-12-03T20:06:05.633Z,46.70
2022-12-03T20:08:32.906Z,46.40
2022-12-03T20:11:22.059Z,46.30
2022-12-03T20:13:49.447Z,46.20
2022-12-03T20:16:16.103Z,46.10
2022-12-03T20:18:44.108Z,46.00
2022-12-03T20:21:11.904Z,45.90
2022-12-03T20:23:38.593Z,46.70
2022-12-03T20:26:09.224Z,47.10
2022-12-03T20:28:35.951Z,45.80
2022-12-03T20:31:04.254Z,46.00
2022-12-03T20:33:30.792Z,46.40
2022-12-03T20:35:57.679Z,46.30
2022-12-03T20:38:24.334Z,46.30
2022-12-03T20:40:50.905Z,46.40
2022-12-03T20:43:17.523Z,46.10
2022-12-03T20:45:44.168Z,46.20
2022-12-03T20:48:11.606Z,46.20
2022-12-03T20:50:38.952Z,46.20
2022-12-03T20:53:23.814Z,46.00
2022-12-03T20:55:56.265Z,46.20
2022-12-03T20:58:22.817Z,46.10
2022-12-03T21:00:49.475Z,46.00
2022-12-03T21:03:16.132Z,46.10
2022-12-03T21:05:44.008Z,46.10
2022-12-03T21:08:11.302Z,46.40
2022-12-03T21:10:44.984Z,46.40
2022-12-03T21:13:12.503Z,46.20
2022-12-03T21:15:39.260Z,46.30
2022-12-03T21:18:05.967Z,46.20
2022-12-03T21:20:32.542Z,46.20
2022-12-03T21:22:59.152Z,46.90
2022-12-03T21:25:25.688Z,46.40
2022-12-03T21:27:52.271Z,46.40
2022-12-03T21:30:18.877Z,46.10
2022-12-03T21:32:45.482Z,46.20
2022-12-03T21:35:12.148Z,46.10
2022-12-03T21:37:38.739Z,46.20
2022-12-03T21:40:05.698Z,46.20
2022-12-03T21:42:36.526Z,47.00
2022-12-03T21:45:04.070Z,46.50
2022-12-03T21:47:36.512Z,46.30
2022-12-03T21:50:04.975Z,46.20
2022-12-03T21:52:32.027Z,46.20
2022-12-03T21:54:58.577Z,46.30
2022-12-03T21:57:25.158Z,46.60
2022-12-03T21:59:51.843Z,47.20
2022-12-03T22:02:18.478Z,46.40
2022-12-03T22:04:49.137Z,46.40
2022-12-03T22:07:15.704Z,46.20
2022-12-03T22:09:42.280Z,46.60
2022-12-03T22:12:08.890Z,46.60
2022-12-03T22:14:35.628Z,45.70
2022-12-03T22:17:02.209Z,47.60
2022-12-03T22:19:28.840Z,47.80
2022-12-03T22:21:55.444Z,47.90
2022-12-03T22:24:23.625Z,48.20
2022-12-03T22:26:52.146Z,46.40
2022-12-03T22:29:18.764Z,45.80
2022-12-03T22:31:45.333Z,45.90
2022-12-03T22:34:11.909Z,45.60
2022-12-03T22:36:38.465Z,45.40
2022-12-03T22:39:05.054Z,45.70
2022-12-03T22:41:31.612Z,45.60
2022-12-03T22:43:58.155Z,46.00
2022-12-03T22:46:24.743Z,45.80
2022-12-03T22:48:51.353Z,46.20
2022-12-03T22:51:22.278Z,45.90
2022-12-03T22:53:53.427Z,45.90
2022-12-03T22:56:20.000Z,46.20
2022-12-03T22:58:48.739Z,46.10
2022-12-03T23:01:20.390Z,46.30
2022-12-03T23:03:47.045Z,46.50
2022-12-03T23:06:13.668Z,46.10
2022-12-03T23:08:40.272Z,46.40
2022-12-03T23:11:07.164Z,46.70
2022-12-03T23:13:33.732Z,46.70
2022-12-03T23:16:02.032Z,47.20
2022-12-03T23:18:28.610Z,46.80
2022-12-03T23:20:55.972Z,46.70
2022-12-03T23:23:23.420Z,46.90
2022-12-03T23:26:16.300Z,47.20
2022-12-03T23:28:44.711Z,47.10
2022-12-03T23:31:15.830Z,47.10
2022-12-03T23:33:42.468Z,47.10
2022-12-03T23:36:09.321Z,47.00
2022-12-03T23:38:35.952Z,47.10
2022-12-03T23:41:06.363Z,47.10
2022-12-03T23:43:33.325Z,47.20
2022-12-03T23:46:04.351Z,47.60
2022-12-03T23:48:30.980Z,47.10
2022-12-03T23:50:57.562Z,47.60
2022-12-03T23:53:24.259Z,47.50
2022-12-03T23:55:50.837Z,47.50
2022-12-03T23:58:17.531Z,47.40
